sensor_id;sensor_type;location;lat;lon;timestamp;pressure;altitude;pressure_sealevel;temperature;humidity
69402;BME280;56589;51.992;5.924;2023-02-28T00:00:25;102565.84;;;0.64;65.29
69402;BME280;56589;51.992;5.924;2023-02-28T00:02:51;102559.00;;;0.72;65.21
69402;BME280;56589;51.992;5.924;2023-02-28T00:05:19;102561.66;;;0.81;65.22
69402;BME280;56589;51.992;5.924;2023-02-28T00:07:49;102558.22;;;0.88;65.14
69402;BME280;56589;51.992;5.924;2023-02-28T00:10:16;102551.38;;;0.93;65.09
69402;BME280;56589;51.992;5.924;2023-02-28T00:12:44;102548.81;;;0.99;65.46
69402;BME280;56589;51.992;5.924;2023-02-28T00:15:10;102548.84;;;1.04;64.91
69402;BME280;56589;51.992;5.924;2023-02-28T00:17:39;102549.69;;;1.07;65.23
69402;BME280;56589;51.992;5.924;2023-02-28T00:20:07;102550.56;;;1.14;64.91
69402;BME280;56589;51.992;5.924;2023-02-28T00:22:34;102554.91;;;1.18;65.25
69402;BME280;56589;51.992;5.924;2023-02-28T00:25:00;102559.22;;;1.24;64.84
69402;BME280;56589;51.992;5.924;2023-02-28T00:27:26;102555.81;;;1.28;64.80
69402;BME280;56589;51.992;5.924;2023-02-28T00:29:51;102551.50;;;1.31;64.86
69402;BME280;56589;51.992;5.924;2023-02-28T00:32:17;102555.81;;;1.34;64.70
69402;BME280;56589;51.992;5.924;2023-02-28T00:34:46;102549.78;;;1.36;65.03
69402;BME280;56589;51.992;5.924;2023-02-28T00:37:11;102544.63;;;1.41;64.53
69402;BME280;56589;51.992;5.924;2023-02-28T00:39:38;102548.94;;;1.43;64.60
69402;BME280;56589;51.992;5.924;2023-02-28T00:42:05;102558.41;;;1.45;64.84
69402;BME280;56589;51.992;5.924;2023-02-28T00:44:32;102554.97;;;1.44;64.55
69402;BME280;56589;51.992;5.924;2023-02-28T00:46:58;102558.44;;;1.46;64.56
69402;BME280;56589;51.992;5.924;2023-02-28T00:49:26;102548.09;;;1.48;64.49
69402;BME280;56589;51.992;5.924;2023-02-28T00:51:56;102547.22;;;1.50;64.56
69402;BME280;56589;51.992;5.924;2023-02-28T00:54:22;102549.84;;;1.52;64.33
69402;BME280;56589;51.992;5.924;2023-02-28T00:56:49;102554.13;;;1.54;64.42
69402;BME280;56589;51.992;5.924;2023-02-28T00:59:17;102555.84;;;1.55;64.55
69402;BME280;56589;51.992;5.924;2023-02-28T01:01:44;102559.31;;;1.54;64.48
69402;BME280;56589;51.992;5.924;2023-02-28T01:04:12;102550.69;;;1.55;64.65
69402;BME280;56589;51.992;5.924;2023-02-28T01:06:39;102546.34;;;1.57;64.13
69402;BME280;56589;51.992;5.924;2023-02-28T01:09:08;102547.25;;;1.59;64.25
69402;BME280;56589;51.992;5.924;2023-02-28T01:11:35;102547.22;;;1.62;64.14
69402;BME280;56589;51.992;5.924;2023-02-28T01:14:01;102546.41;;;1.65;63.90
69402;BME280;56589;51.992;5.924;2023-02-28T01:16:27;102550.69;;;1.67;64.31
69402;BME280;56589;51.992;5.924;2023-02-28T01:18:53;102540.38;;;1.71;63.74
69402;BME280;56589;51.992;5.924;2023-02-28T01:21:21;102546.41;;;1.71;63.82
69402;BME280;56589;51.992;5.924;2023-02-28T01:23:48;102559.34;;;1.73;64.22
69402;BME280;56589;51.992;5.924;2023-02-28T01:26:19;102558.47;;;1.69;63.81
69402;BME280;56589;51.992;5.924;2023-02-28T01:28:48;102555.88;;;1.66;64.28
69402;BME280;56589;51.992;5.924;2023-02-28T01:31:15;102550.69;;;1.58;63.91
69402;BME280;56589;51.992;5.924;2023-02-28T01:33:42;102554.13;;;1.54;64.46
69402;BME280;56589;51.992;5.924;2023-02-28T01:36:11;102555.00;;;1.53;64.56
69402;BME280;56589;51.992;5.924;2023-02-28T01:38:39;102559.31;;;1.53;64.86
69402;BME280;56589;51.992;5.924;2023-02-28T01:41:07;102548.94;;;1.50;64.50
69402;BME280;56589;51.992;5.924;2023-02-28T01:43:56;102553.25;;;1.51;64.93
69402;BME280;56589;51.992;5.924;2023-02-28T01:46:24;102554.13;;;1.50;64.75
69402;BME280;56589;51.992;5.924;2023-02-28T01:48:53;102545.50;;;1.49;64.88
69402;BME280;56589;51.992;5.924;2023-02-28T01:51:27;102542.91;;;1.51;65.03
69402;BME280;56589;51.992;5.924;2023-02-28T01:54:00;102542.03;;;1.50;65.15
69402;BME280;56589;51.992;5.924;2023-02-28T01:56:30;102536.88;;;1.50;65.22
69402;BME280;56589;51.992;5.924;2023-02-28T01:59:03;102542.91;;;1.51;65.38
69402;BME280;56589;51.992;5.924;2023-02-28T02:01:30;102542.06;;;1.52;65.38
69402;BME280;56589;51.992;5.924;2023-02-28T02:04:00;102536.03;;;1.53;65.14
69402;BME280;56589;51.992;5.924;2023-02-28T02:06:30;102547.25;;;1.53;64.99
69402;BME280;56589;51.992;5.924;2023-02-28T02:09:01;102539.47;;;1.49;65.44
69402;BME280;56589;51.992;5.924;2023-02-28T02:11:27;102543.78;;;1.48;65.57
69402;BME280;56589;51.992;5.924;2023-02-28T02:14:12;102543.78;;;1.48;65.79
69402;BME280;56589;51.992;5.924;2023-02-28T02:17:04;102544.63;;;1.47;65.58
69402;BME280;56589;51.992;5.924;2023-02-28T02:26:50;102535.97;;;1.39;65.84
69402;BME280;56589;51.992;5.924;2023-02-28T02:33:06;102538.56;;;1.39;65.30
69402;BME280;56589;51.992;5.924;2023-02-28T02:35:56;102543.75;;;1.40;65.38
69402;BME280;56589;51.992;5.924;2023-02-28T02:38:32;102542.91;;;1.41;65.03
69402;BME280;56589;51.992;5.924;2023-02-28T02:41:08;102537.72;;;1.41;64.65
69402;BME280;56589;51.992;5.924;2023-02-28T02:43:45;102540.31;;;1.46;64.98
69402;BME280;56589;51.992;5.924;2023-02-28T02:46:21;102548.09;;;1.46;64.31
69402;BME280;56589;51.992;5.924;2023-02-28T02:48:55;102543.75;;;1.50;64.59
69402;BME280;56589;51.992;5.924;2023-02-28T02:51:30;102548.09;;;1.54;64.43
69402;BME280;56589;51.992;5.924;2023-02-28T02:54:00;102542.94;;;1.52;63.76
69402;BME280;56589;51.992;5.924;2023-02-28T02:56:31;102537.72;;;1.51;63.70
69402;BME280;56589;51.992;5.924;2023-02-28T02:59:02;102540.31;;;1.51;64.05
69402;BME280;56589;51.992;5.924;2023-02-28T03:01:32;102544.66;;;1.52;64.02
69402;BME280;56589;51.992;5.924;2023-02-28T03:04:03;102554.16;;;1.53;64.05
69402;BME280;56589;51.992;5.924;2023-02-28T03:06:35;102557.59;;;1.55;64.01
69402;BME280;56589;51.992;5.924;2023-02-28T03:09:02;102550.69;;;1.55;64.21
69402;BME280;56589;51.992;5.924;2023-02-28T03:11:29;102556.72;;;1.56;63.57
69402;BME280;56589;51.992;5.924;2023-02-28T03:14:09;102548.97;;;1.56;64.00
69402;BME280;56589;51.992;5.924;2023-02-28T03:17:00;102554.13;;;1.54;63.79
69402;BME280;56589;51.992;5.924;2023-02-28T03:19:48;102561.03;;;1.55;63.67
69402;BME280;56589;51.992;5.924;2023-02-28T03:22:37;102558.44;;;1.55;63.33
69402;BME280;56589;51.992;5.924;2023-02-28T03:25:18;102555.88;;;1.52;63.21
69402;BME280;56589;51.992;5.924;2023-02-28T03:27:59;102551.53;;;1.51;63.29
69402;BME280;56589;51.992;5.924;2023-02-28T03:30:35;102557.59;;;1.53;63.04
69402;BME280;56589;51.992;5.924;2023-02-28T03:33:08;102554.16;;;1.53;62.75
69402;BME280;56589;51.992;5.924;2023-02-28T03:35:40;102550.69;;;1.54;63.29
69402;BME280;56589;51.992;5.924;2023-02-28T03:38:14;102557.59;;;1.53;63.20
69402;BME280;56589;51.992;5.924;2023-02-28T03:40:49;102558.47;;;1.52;62.88
69402;BME280;56589;51.992;5.924;2023-02-28T03:43:24;102551.53;;;1.54;62.89
69402;BME280;56589;51.992;5.924;2023-02-28T03:45:54;102557.59;;;1.56;62.34
69402;BME280;56589;51.992;5.924;2023-02-28T03:48:27;102558.44;;;1.57;62.31
69402;BME280;56589;51.992;5.924;2023-02-28T03:50:58;102551.56;;;1.59;62.54
69402;BME280;56589;51.992;5.924;2023-02-28T03:53:32;102549.81;;;1.62;62.40
69402;BME280;56589;51.992;5.924;2023-02-28T03:56:06;102551.56;;;1.62;61.99
69402;BME280;56589;51.992;5.924;2023-02-28T03:58:44;102547.25;;;1.61;61.94
69402;BME280;56589;51.992;5.924;2023-02-28T04:01:20;102547.22;;;1.56;61.48
69402;BME280;56589;51.992;5.924;2023-02-28T04:03:50;102540.31;;;1.55;61.53
69402;BME280;56589;51.992;5.924;2023-02-28T04:06:18;102537.75;;;1.55;61.41
69402;BME280;56589;51.992;5.924;2023-02-28T04:08:48;102535.16;;;1.55;61.41
69402;BME280;56589;51.992;5.924;2023-02-28T04:11:20;102537.75;;;1.55;60.97
69402;BME280;56589;51.992;5.924;2023-02-28T04:13:49;102539.47;;;1.52;60.93
69402;BME280;56589;51.992;5.924;2023-02-28T04:16:15;102543.75;;;1.51;60.65
69402;BME280;56589;51.992;5.924;2023-02-28T04:18:41;102542.91;;;1.49;60.66
69402;BME280;56589;51.992;5.924;2023-02-28T04:21:33;102539.47;;;1.47;60.49
69402;BME280;56589;51.992;5.924;2023-02-28T04:24:03;102541.16;;;1.45;60.43
69402;BME280;56589;51.992;5.924;2023-02-28T04:26:30;102549.81;;;1.46;60.65
69402;BME280;56589;51.992;5.924;2023-02-28T04:28:58;102536.00;;;1.43;60.53
69402;BME280;56589;51.992;5.924;2023-02-28T04:31:24;102548.06;;;1.45;60.38
69402;BME280;56589;51.992;5.924;2023-02-28T04:34:01;102536.84;;;1.41;60.57
69402;BME280;56589;51.992;5.924;2023-02-28T04:39:58;102532.53;;;1.28;60.56
69402;BME280;56589;51.992;5.924;2023-02-28T04:42:24;102540.28;;;1.22;60.76
69402;BME280;56589;51.992;5.924;2023-02-28T04:44:49;102533.34;;;1.21;61.07
69402;BME280;56589;51.992;5.924;2023-02-28T04:47:15;102533.31;;;1.14;60.78
69402;BME280;56589;51.992;5.924;2023-02-28T04:49:41;102534.19;;;1.12;61.43
69402;BME280;56589;51.992;5.924;2023-02-28T04:52:08;102535.06;;;1.09;61.10
69402;BME280;56589;51.992;5.924;2023-02-28T04:54:34;102535.91;;;1.05;61.56
69402;BME280;56589;51.992;5.924;2023-02-28T04:57:02;102531.56;;;1.01;61.32
69402;BME280;56589;51.992;5.924;2023-02-28T04:59:28;102535.00;;;0.97;61.94
69402;BME280;56589;51.992;5.924;2023-02-28T05:01:54;102543.59;;;0.93;62.14
69402;BME280;56589;51.992;5.924;2023-02-28T05:04:20;102545.34;;;0.93;62.01
69402;BME280;56589;51.992;5.924;2023-02-28T05:06:45;102536.72;;;0.92;62.19
69402;BME280;56589;51.992;5.924;2023-02-28T05:09:11;102540.16;;;0.94;61.99
69402;BME280;56589;51.992;5.924;2023-02-28T05:11:37;102532.41;;;0.96;62.20
69402;BME280;56589;51.992;5.924;2023-02-28T05:14:09;102537.56;;;0.96;62.21
69402;BME280;56589;51.992;5.924;2023-02-28T05:16:36;102538.44;;;0.95;62.10
69402;BME280;56589;51.992;5.924;2023-02-28T05:19:02;102541.03;;;0.93;62.28
69402;BME280;56589;51.992;5.924;2023-02-28T05:21:30;102538.44;;;0.93;62.14
69402;BME280;56589;51.992;5.924;2023-02-28T05:24:01;102536.72;;;0.94;62.43
69402;BME280;56589;51.992;5.924;2023-02-28T05:26:30;102531.53;;;0.92;62.33
69402;BME280;56589;51.992;5.924;2023-02-28T05:28:56;102544.47;;;0.95;62.64
69402;BME280;56589;51.992;5.924;2023-02-28T05:31:25;102542.78;;;0.97;62.58
69402;BME280;56589;51.992;5.924;2023-02-28T05:33:51;102542.78;;;0.97;62.58
69402;BME280;56589;51.992;5.924;2023-02-28T05:36:16;102545.34;;;0.99;62.42
69402;BME280;56589;51.992;5.924;2023-02-28T05:38:42;102545.34;;;0.97;62.46
69402;BME280;56589;51.992;5.924;2023-02-28T05:41:09;102550.53;;;0.99;62.58
69402;BME280;56589;51.992;5.924;2023-02-28T05:43:36;102555.69;;;1.00;62.73
69402;BME280;56589;51.992;5.924;2023-02-28T05:46:04;102559.16;;;1.01;62.63
69402;BME280;56589;51.992;5.924;2023-02-28T05:48:34;102554.84;;;1.01;62.75
69402;BME280;56589;51.992;5.924;2023-02-28T05:51:02;102556.56;;;1.02;62.36
69402;BME280;56589;51.992;5.924;2023-02-28T05:53:29;102548.81;;;1.05;62.95
69402;BME280;56589;51.992;5.924;2023-02-28T05:55:56;102535.88;;;1.07;62.95
69402;BME280;56589;51.992;5.924;2023-02-28T05:58:22;102563.50;;;1.09;62.27
69402;BME280;56589;51.992;5.924;2023-02-28T06:00:49;102560.03;;;1.06;62.75
69402;BME280;56589;51.992;5.924;2023-02-28T06:03:14;102547.97;;;1.06;62.76
69402;BME280;56589;51.992;5.924;2023-02-28T06:05:43;102556.59;;;1.07;62.70
69402;BME280;56589;51.992;5.924;2023-02-28T06:08:09;102548.81;;;1.08;62.81
69402;BME280;56589;51.992;5.924;2023-02-28T06:10:35;102534.19;;;1.10;62.61
69402;BME280;56589;51.992;5.924;2023-02-28T06:13:01;102563.50;;;1.14;62.71
69402;BME280;56589;51.992;5.924;2023-02-28T06:15:28;102574.72;;;1.14;62.60
69402;BME280;56589;51.992;5.924;2023-02-28T06:17:54;102572.13;;;1.14;62.61
69402;BME280;56589;51.992;5.924;2023-02-28T06:20:21;102569.56;;;1.18;62.95
69402;BME280;56589;51.992;5.924;2023-02-28T06:22:49;102558.34;;;1.20;62.38
69402;BME280;56589;51.992;5.924;2023-02-28T06:25:15;102561.81;;;1.24;62.62
69402;BME280;56589;51.992;5.924;2023-02-28T06:27:41;102563.53;;;1.26;62.63
69402;BME280;56589;51.992;5.924;2023-02-28T06:30:09;102567.03;;;1.28;62.45
69402;BME280;56589;51.992;5.924;2023-02-28T06:32:36;102583.41;;;1.29;62.44
69402;BME280;56589;51.992;5.924;2023-02-28T06:35:02;102591.16;;;1.30;62.37
69402;BME280;56589;51.992;5.924;2023-02-28T06:37:30;102586.84;;;1.31;62.51
69402;BME280;56589;51.992;5.924;2023-02-28T06:39:58;102579.97;;;1.37;62.13
69402;BME280;56589;51.992;5.924;2023-02-28T06:42:25;102584.31;;;1.43;61.78
69402;BME280;56589;51.992;5.924;2023-02-28T06:44:51;102590.34;;;1.45;61.50
69402;BME280;56589;51.992;5.924;2023-02-28T06:47:17;102599.84;;;1.48;61.72
69402;BME280;56589;51.992;5.924;2023-02-28T06:49:43;102595.53;;;1.48;61.33
69402;BME280;56589;51.992;5.924;2023-02-28T06:52:08;102597.25;;;1.49;61.25
69402;BME280;56589;51.992;5.924;2023-02-28T06:54:36;102599.00;;;1.53;60.79
69402;BME280;56589;51.992;5.924;2023-02-28T06:57:05;102599.88;;;1.54;60.65
69402;BME280;56589;51.992;5.924;2023-02-28T06:59:31;102599.88;;;1.54;60.81
69402;BME280;56589;51.992;5.924;2023-02-28T07:01:57;102601.63;;;1.58;60.29
69402;BME280;56589;51.992;5.924;2023-02-28T07:04:22;102597.28;;;1.61;60.68
69402;BME280;56589;51.992;5.924;2023-02-28T07:06:48;102606.78;;;1.62;60.40
69402;BME280;56589;51.992;5.924;2023-02-28T07:09:14;102606.81;;;1.65;60.17
69402;BME280;56589;51.992;5.924;2023-02-28T07:11:41;102613.69;;;1.68;60.10
69402;BME280;56589;51.992;5.924;2023-02-28T07:14:09;102615.44;;;1.72;60.08
69402;BME280;56589;51.992;5.924;2023-02-28T07:16:35;102618.88;;;1.76;59.88
69402;BME280;56589;51.992;5.924;2023-02-28T07:19:01;102611.13;;;1.79;59.70
69402;BME280;56589;51.992;5.924;2023-02-28T07:21:27;102608.53;;;1.82;59.72
69402;BME280;56589;51.992;5.924;2023-02-28T07:23:53;102608.53;;;1.82;59.74
69402;BME280;56589;51.992;5.924;2023-02-28T07:26:20;102605.94;;;1.82;59.68
69402;BME280;56589;51.992;5.924;2023-02-28T07:28:47;102606.81;;;1.79;59.20
69402;BME280;56589;51.992;5.924;2023-02-28T07:31:17;102610.28;;;1.77;59.05
69402;BME280;56589;51.992;5.924;2023-02-28T07:33:43;102618.03;;;1.74;59.40
69402;BME280;56589;51.992;5.924;2023-02-28T07:36:11;102622.31;;;1.70;59.09
69402;BME280;56589;51.992;5.924;2023-02-28T07:38:39;102618.00;;;1.69;59.07
69402;BME280;56589;51.992;5.924;2023-02-28T07:41:05;102620.63;;;1.71;58.60
69402;BME280;56589;51.992;5.924;2023-02-28T07:43:31;102621.47;;;1.69;58.48
69402;BME280;56589;51.992;5.924;2023-02-28T07:46:01;102618.03;;;1.74;58.25
69402;BME280;56589;51.992;5.924;2023-02-28T07:48:31;102623.22;;;1.77;58.17
69402;BME280;56589;51.992;5.924;2023-02-28T07:50:58;102620.63;;;1.78;58.34
69402;BME280;56589;51.992;5.924;2023-02-28T07:53:25;102623.25;;;1.84;58.50
69402;BME280;56589;51.992;5.924;2023-02-28T07:55:55;102623.25;;;1.95;58.47
69402;BME280;56589;51.992;5.924;2023-02-28T07:58:21;102631.88;;;2.06;58.04
69402;BME280;56589;51.992;5.924;2023-02-28T08:00:47;102626.72;;;2.15;58.09
69402;BME280;56589;51.992;5.924;2023-02-28T08:03:12;102624.13;;;2.17;56.89
69402;BME280;56589;51.992;5.924;2023-02-28T08:05:41;102625.84;;;2.12;56.85
69402;BME280;56589;51.992;5.924;2023-02-28T08:08:08;102623.25;;;2.03;54.45
69402;BME280;56589;51.992;5.924;2023-02-28T08:10:34;102637.06;;;1.97;55.40
69402;BME280;56589;51.992;5.924;2023-02-28T08:13:00;102637.94;;;1.99;55.89
69402;BME280;56589;51.992;5.924;2023-02-28T08:15:26;102634.50;;;2.02;53.88
69402;BME280;56589;51.992;5.924;2023-02-28T08:17:52;102640.53;;;2.04;54.24
69402;BME280;56589;51.992;5.924;2023-02-28T08:20:18;102637.94;;;2.04;53.60
69402;BME280;56589;51.992;5.924;2023-02-28T08:22:46;102645.72;;;2.04;53.06
69402;BME280;56589;51.992;5.924;2023-02-28T08:25:12;102638.78;;;2.06;52.06
69402;BME280;56589;51.992;5.924;2023-02-28T08:27:38;102635.38;;;2.08;52.84
69402;BME280;56589;51.992;5.924;2023-02-28T08:30:05;102637.06;;;2.12;52.26
69402;BME280;56589;51.992;5.924;2023-02-28T08:32:33;102637.09;;;2.14;51.06
69402;BME280;56589;51.992;5.924;2023-02-28T08:34:59;102626.72;;;2.15;51.28
69402;BME280;56589;51.992;5.924;2023-02-28T08:37:25;102634.47;;;2.18;51.52
69402;BME280;56589;51.992;5.924;2023-02-28T08:39:54;102627.59;;;2.20;50.50
69402;BME280;56589;51.992;5.924;2023-02-28T08:42:20;102639.66;;;2.24;51.13
69402;BME280;56589;51.992;5.924;2023-02-28T08:44:46;102639.69;;;2.32;51.62
69402;BME280;56589;51.992;5.924;2023-02-28T08:47:11;102644.00;;;2.39;50.73
69402;BME280;56589;51.992;5.924;2023-02-28T08:49:37;102637.94;;;2.42;49.96
69402;BME280;56589;51.992;5.924;2023-02-28T08:52:04;102640.56;;;2.39;49.68
69402;BME280;56589;51.992;5.924;2023-02-28T08:54:30;102638.81;;;2.39;49.30
69402;BME280;56589;51.992;5.924;2023-02-28T08:56:58;102628.44;;;2.39;50.48
69402;BME280;56589;51.992;5.924;2023-02-28T08:59:24;102638.81;;;2.44;50.36
69402;BME280;56589;51.992;5.924;2023-02-28T09:01:50;102627.59;;;2.46;49.85
69402;BME280;56589;51.992;5.924;2023-02-28T09:04:15;102631.91;;;2.50;49.81
69402;BME280;56589;51.992;5.924;2023-02-28T09:06:41;102636.22;;;2.50;48.77
69402;BME280;56589;51.992;5.924;2023-02-28T09:09:07;102632.75;;;2.46;48.45
69402;BME280;56589;51.992;5.924;2023-02-28T09:11:34;102640.53;;;2.49;49.42
69402;BME280;56589;51.992;5.924;2023-02-28T09:14:03;102635.38;;;2.51;48.76
69402;BME280;56589;51.992;5.924;2023-02-28T09:16:30;102644.84;;;2.55;48.28
69402;BME280;56589;51.992;5.924;2023-02-28T09:18:57;102635.34;;;2.54;47.65
69402;BME280;56589;51.992;5.924;2023-02-28T09:21:23;102631.03;;;2.56;48.14
69402;BME280;56589;51.992;5.924;2023-02-28T09:23:50;102643.13;;;2.63;46.69
69402;BME280;56589;51.992;5.924;2023-02-28T09:26:18;102635.34;;;2.65;46.06
69402;BME280;56589;51.992;5.924;2023-02-28T09:28:45;102637.91;;;2.71;46.39
69402;BME280;56589;51.992;5.924;2023-02-28T09:31:15;102648.28;;;2.77;45.12
69402;BME280;56589;51.992;5.924;2023-02-28T09:33:43;102644.84;;;2.81;46.68
69402;BME280;56589;51.992;5.924;2023-02-28T09:36:09;102637.03;;;2.83;46.09
69402;BME280;56589;51.992;5.924;2023-02-28T09:38:34;102641.34;;;2.85;45.52
69402;BME280;56589;51.992;5.924;2023-02-28T09:41:02;102633.56;;;2.85;46.18
69402;BME280;56589;51.992;5.924;2023-02-28T09:43:33;102633.56;;;2.85;45.57
69402;BME280;56589;51.992;5.924;2023-02-28T09:46:08;102632.72;;;2.83;43.74
69402;BME280;56589;51.992;5.924;2023-02-28T09:48:48;102632.72;;;2.82;45.01
69402;BME280;56589;51.992;5.924;2023-02-28T09:51:29;102642.25;;;2.81;44.49
69402;BME280;56589;51.992;5.924;2023-02-28T09:54:02;102635.28;;;2.86;45.25
69402;BME280;56589;51.992;5.924;2023-02-28T09:56:32;102637.88;;;2.89;45.65
69402;BME280;56589;51.992;5.924;2023-02-28T09:59:05;102637.88;;;2.95;45.61
69402;BME280;56589;51.992;5.924;2023-02-28T10:01:53;102624.00;;;3.01;44.98
69402;BME280;56589;51.992;5.924;2023-02-28T10:04:41;102635.22;;;3.04;44.61
69402;BME280;56589;51.992;5.924;2023-02-28T10:07:21;102630.91;;;3.13;45.08
69402;BME280;56589;51.992;5.924;2023-02-28T10:10:19;102621.34;;;3.16;44.52
69402;BME280;56589;51.992;5.924;2023-02-28T10:12:53;102626.53;;;3.22;44.35
69402;BME280;56589;51.992;5.924;2023-02-28T10:15:24;102626.53;;;3.25;43.99
69402;BME280;56589;51.992;5.924;2023-02-28T10:18:00;102619.56;;;3.34;43.73
69402;BME280;56589;51.992;5.924;2023-02-28T10:20:32;102628.22;;;3.37;43.28
69402;BME280;56589;51.992;5.924;2023-02-28T10:23:04;102620.41;;;3.39;42.85
69402;BME280;56589;51.992;5.924;2023-02-28T10:25:38;102613.44;;;3.48;42.91
69402;BME280;56589;51.992;5.924;2023-02-28T10:28:10;102616.88;;;3.52;41.84
69402;BME280;56589;51.992;5.924;2023-02-28T10:30:40;102614.28;;;3.55;42.27
69402;BME280;56589;51.992;5.924;2023-02-28T10:33:18;102614.22;;;3.64;42.69
69402;BME280;56589;51.992;5.924;2023-02-28T10:35:47;102616.75;;;3.75;42.77
69402;BME280;56589;51.992;5.924;2023-02-28T10:38:17;102614.09;;;3.85;42.36
69402;BME280;56589;51.992;5.924;2023-02-28T10:40:44;102612.34;;;3.86;41.49
69402;BME280;56589;51.992;5.924;2023-02-28T10:43:19;102612.34;;;3.88;41.89
69402;BME280;56589;51.992;5.924;2023-02-28T10:45:57;102606.19;;;3.99;42.15
69402;BME280;56589;51.992;5.924;2023-02-28T10:48:32;102612.16;;;4.12;42.90
69402;BME280;56589;51.992;5.924;2023-02-28T10:51:00;102606.88;;;4.23;42.65
69402;BME280;56589;51.992;5.924;2023-02-28T10:53:34;102611.97;;;4.35;43.04
69402;BME280;56589;51.992;5.924;2023-02-28T10:56:09;102609.28;;;4.44;42.43
69402;BME280;56589;51.992;5.924;2023-02-28T10:58:51;102598.81;;;4.50;42.28
69402;BME280;56589;51.992;5.924;2023-02-28T11:01:21;102602.19;;;4.58;42.36
69402;BME280;56589;51.992;5.924;2023-02-28T11:03:52;102598.66;;;4.64;42.04
69402;BME280;56589;51.992;5.924;2023-02-28T11:06:20;102603.00;;;4.66;41.82
69402;BME280;56589;51.992;5.924;2023-02-28T11:08:51;102606.47;;;4.65;41.32
69402;BME280;56589;51.992;5.924;2023-02-28T11:11:20;102609.94;;;4.66;42.10
69402;BME280;56589;51.992;5.924;2023-02-28T11:13:51;102591.72;;;4.64;40.91
69402;BME280;56589;51.992;5.924;2023-02-28T11:16:20;102605.59;;;4.63;40.85
69402;BME280;56589;51.992;5.924;2023-02-28T11:18:53;102598.66;;;4.65;40.80
69402;BME280;56589;51.992;5.924;2023-02-28T11:21:23;102596.03;;;4.67;40.67
69402;BME280;56589;51.992;5.924;2023-02-28T11:23:56;102592.53;;;4.71;41.67
69402;BME280;56589;51.992;5.924;2023-02-28T11:26:42;102588.09;;;4.81;41.48
69402;BME280;56589;51.992;5.924;2023-02-28T11:29:20;102582.81;;;4.87;41.83
69402;BME280;56589;51.992;5.924;2023-02-28T11:32:05;102583.63;;;4.93;41.04
69402;BME280;56589;51.992;5.924;2023-02-28T11:34:40;102580.94;;;5.03;41.55
69402;BME280;56589;51.992;5.924;2023-02-28T11:37:12;102579.91;;;5.13;41.75
69402;BME280;56589;51.992;5.924;2023-02-28T11:39:40;102585.09;;;5.16;40.21
69402;BME280;56589;51.992;5.924;2023-02-28T11:42:32;102579.09;;;5.11;39.12
69402;BME280;56589;51.992;5.924;2023-02-28T11:45:35;102581.69;;;5.11;40.08
69402;BME280;56589;51.992;5.924;2023-02-28T11:48:17;102574.72;;;5.13;40.36
69402;BME280;56589;51.992;5.924;2023-02-28T11:50:57;102573.84;;;5.14;39.70
69402;BME280;56589;51.992;5.924;2023-02-28T11:53:44;102583.34;;;5.18;38.65
69402;BME280;56589;51.992;5.924;2023-02-28T11:56:26;102567.69;;;5.21;40.17
69402;BME280;56589;51.992;5.924;2023-02-28T11:59:10;102560.72;;;5.22;39.30
69402;BME280;56589;51.992;5.924;2023-02-28T12:02:06;102560.75;;;5.20;38.58
69402;BME280;56589;51.992;5.924;2023-02-28T12:04:54;102550.34;;;5.20;39.25
69402;BME280;56589;51.992;5.924;2023-02-28T12:07:47;102553.78;;;5.22;38.62
69402;BME280;56589;51.992;5.924;2023-02-28T12:10:24;102555.50;;;5.23;38.33
69402;BME280;56589;51.992;5.924;2023-02-28T12:13:07;102545.97;;;5.22;37.97
69402;BME280;56589;51.992;5.924;2023-02-28T12:15:55;102557.16;;;5.29;38.29
69402;BME280;56589;51.992;5.924;2023-02-28T12:18:51;102545.84;;;5.30;39.06
69402;BME280;56589;51.992;5.924;2023-02-28T12:21:32;102549.28;;;5.32;38.01
69402;BME280;56589;51.992;5.924;2023-02-28T12:24:32;102545.84;;;5.30;38.05
69402;BME280;56589;51.992;5.924;2023-02-28T12:27:14;102532.84;;;5.30;38.38
69402;BME280;56589;51.992;5.924;2023-02-28T12:29:49;102538.00;;;5.31;38.32
69402;BME280;56589;51.992;5.924;2023-02-28T12:32:25;102542.38;;;5.29;37.84
69402;BME280;56589;51.992;5.924;2023-02-28T12:34:58;102535.50;;;5.27;38.29
69402;BME280;56589;51.992;5.924;2023-02-28T12:37:35;102531.06;;;5.33;38.15
69402;BME280;56589;51.992;5.924;2023-02-28T12:40:10;102534.47;;;5.38;37.20
69402;BME280;56589;51.992;5.924;2023-02-28T12:42:43;102525.00;;;5.33;38.00
69402;BME280;56589;51.992;5.924;2023-02-28T12:45:18;102511.88;;;5.39;37.30
69402;BME280;56589;51.992;5.924;2023-02-28T12:47:50;102519.56;;;5.46;38.59
69402;BME280;56589;51.992;5.924;2023-02-28T12:50:22;102509.97;;;5.49;37.10
69402;BME280;56589;51.992;5.924;2023-02-28T12:52:56;102518.66;;;5.49;37.08
69402;BME280;56589;51.992;5.924;2023-02-28T12:55:36;102514.38;;;5.46;37.12
69402;BME280;56589;51.992;5.924;2023-02-28T12:58:14;102511.84;;;5.40;35.88
69402;BME280;56589;51.992;5.924;2023-02-28T13:01:03;102510.97;;;5.41;35.92
69402;BME280;56589;51.992;5.924;2023-02-28T13:04:14;102506.66;;;5.37;37.22
69402;BME280;56589;51.992;5.924;2023-02-28T13:07:13;102502.31;;;5.39;37.08
69402;BME280;56589;51.992;5.924;2023-02-28T13:09:56;102511.03;;;5.37;36.85
69402;BME280;56589;51.992;5.924;2023-02-28T13:12:27;102503.25;;;5.35;36.66
69402;BME280;56589;51.992;5.924;2023-02-28T13:15:07;102493.63;;;5.40;36.07
69402;BME280;56589;51.992;5.924;2023-02-28T13:17:39;102499.66;;;5.42;35.52
69402;BME280;56589;51.992;5.924;2023-02-28T13:20:15;102498.75;;;5.43;36.63
69402;BME280;56589;51.992;5.924;2023-02-28T13:22:44;102491.00;;;5.40;36.35
69402;BME280;56589;51.992;5.924;2023-02-28T13:25:50;102497.09;;;5.39;36.41
69402;BME280;56589;51.992;5.924;2023-02-28T13:38:21;102483.91;;;5.52;37.42
69402;BME280;56589;51.992;5.924;2023-02-28T13:40:49;102485.44;;;5.63;36.76
69402;BME280;56589;51.992;5.924;2023-02-28T13:43:17;102489.75;;;5.66;36.19
69402;BME280;56589;51.992;5.924;2023-02-28T13:46:11;102493.31;;;5.60;35.66